sensor_id;sensor_type;location;lat;lon;timestamp;P1;durP1;ratioP1;P2;durP2;ratioP2
34142;SDS011;20419;10.658;106.724;2023-08-12T00:02:07;4.55;;;2.38;;
34142;SDS011;20419;10.658;106.724;2023-08-12T00:04:34;4.85;;;2.22;;
34142;SDS011;20419;10.658;106.724;2023-08-12T00:07:01;7.22;;;3.50;;
34142;SDS011;20419;10.658;106.724;2023-08-12T00:09:28;9.27;;;3.63;;
34142;SDS011;20419;10.658;106.724;2023-08-12T00:11:54;10.73;;;3.63;;
34142;SDS011;20419;10.658;106.724;2023-08-12T00:14:21;11.35;;;4.13;;
34142;SDS011;20419;10.658;106.724;2023-08-12T00:16:48;10.00;;;4.45;;
34142;SDS011;20419;10.658;106.724;2023-08-12T00:19:15;8.57;;;3.92;;
34142;SDS011;20419;10.658;106.724;2023-08-12T00:21:42;10.00;;;4.22;;
34142;SDS011;20419;10.658;106.724;2023-08-12T00:24:09;9.35;;;3.67;;
34142;SDS011;20419;10.658;106.724;2023-08-12T00:26:35;7.63;;;3.50;;
34142;SDS011;20419;10.658;106.724;2023-08-12T00:29:02;10.45;;;4.80;;
34142;SDS011;20419;10.658;106.724;2023-08-12T00:31:29;10.32;;;4.25;;
34142;SDS011;20419;10.658;106.724;2023-08-12T00:33:56;11.20;;;3.72;;
34142;SDS011;20419;10.658;106.724;2023-08-12T00:36:23;12.27;;;4.20;;
34142;SDS011;20419;10.658;106.724;2023-08-12T00:38:50;8.80;;;3.90;;
34142;SDS011;20419;10.658;106.724;2023-08-12T00:41:17;9.32;;;3.55;;
34142;SDS011;20419;10.658;106.724;2023-08-12T00:43:43;8.98;;;3.60;;
34142;SDS011;20419;10.658;106.724;2023-08-12T00:46:10;9.02;;;3.95;;
34142;SDS011;20419;10.658;106.724;2023-08-12T00:48:37;9.38;;;3.70;;
34142;SDS011;20419;10.658;106.724;2023-08-12T00:51:05;8.80;;;3.67;;
34142;SDS011;20419;10.658;106.724;2023-08-12T00:53:35;8.32;;;3.88;;
34142;SDS011;20419;10.658;106.724;2023-08-12T00:56:03;8.68;;;3.75;;
34142;SDS011;20419;10.658;106.724;2023-08-12T00:58:30;7.65;;;3.47;;
34142;SDS011;20419;10.658;106.724;2023-08-12T01:00:57;9.23;;;3.90;;
34142;SDS011;20419;10.658;106.724;2023-08-12T01:03:24;10.27;;;4.28;;
34142;SDS011;20419;10.658;106.724;2023-08-12T01:05:51;9.63;;;3.70;;
34142;SDS011;20419;10.658;106.724;2023-08-12T01:08:18;7.40;;;3.55;;
34142;SDS011;20419;10.658;106.724;2023-08-12T01:10:46;9.25;;;3.97;;
34142;SDS011;20419;10.658;106.724;2023-08-12T01:15:43;9.73;;;4.47;;
34142;SDS011;20419;10.658;106.724;2023-08-12T01:18:11;9.27;;;3.90;;
34142;SDS011;20419;10.658;106.724;2023-08-12T01:20:38;7.70;;;3.73;;
34142;SDS011;20419;10.658;106.724;2023-08-12T01:23:07;8.73;;;3.97;;
34142;SDS011;20419;10.658;106.724;2023-08-12T01:25:35;7.95;;;3.92;;
34142;SDS011;20419;10.658;106.724;2023-08-12T01:28:02;6.00;;;3.55;;
34142;SDS011;20419;10.658;106.724;2023-08-12T01:30:28;7.47;;;3.47;;
34142;SDS011;20419;10.658;106.724;2023-08-12T01:32:57;6.72;;;3.13;;
34142;SDS011;20419;10.658;106.724;2023-08-12T01:35:34;7.57;;;3.67;;
34142;SDS011;20419;10.658;106.724;2023-08-12T01:38:02;9.88;;;3.85;;
34142;SDS011;20419;10.658;106.724;2023-08-12T01:40:30;7.30;;;3.42;;
34142;SDS011;20419;10.658;106.724;2023-08-12T01:42:58;7.93;;;3.50;;
34142;SDS011;20419;10.658;106.724;2023-08-12T01:45:26;6.75;;;3.28;;
34142;SDS011;20419;10.658;106.724;2023-08-12T01:47:53;7.07;;;3.85;;
34142;SDS011;20419;10.658;106.724;2023-08-12T01:50:20;10.00;;;4.00;;
34142;SDS011;20419;10.658;106.724;2023-08-12T01:52:47;7.72;;;3.20;;
34142;SDS011;20419;10.658;106.724;2023-08-12T01:55:14;8.60;;;3.45;;
34142;SDS011;20419;10.658;106.724;2023-08-12T01:57:40;7.18;;;3.30;;
34142;SDS011;20419;10.658;106.724;2023-08-12T02:00:07;6.20;;;3.17;;
34142;SDS011;20419;10.658;106.724;2023-08-12T02:02:34;6.95;;;3.38;;
34142;SDS011;20419;10.658;106.724;2023-08-12T02:05:01;8.18;;;3.30;;
34142;SDS011;20419;10.658;106.724;2023-08-12T02:07:28;8.27;;;3.85;;
34142;SDS011;20419;10.658;106.724;2023-08-12T02:09:55;5.53;;;2.85;;
34142;SDS011;20419;10.658;106.724;2023-08-12T02:12:22;6.70;;;3.25;;
34142;SDS011;20419;10.658;106.724;2023-08-12T02:14:49;7.90;;;3.03;;
34142;SDS011;20419;10.658;106.724;2023-08-12T02:17:16;6.68;;;3.15;;
34142;SDS011;20419;10.658;106.724;2023-08-12T02:19:43;7.57;;;3.35;;
34142;SDS011;20419;10.658;106.724;2023-08-12T02:22:09;6.45;;;3.00;;
34142;SDS011;20419;10.658;106.724;2023-08-12T02:24:36;7.03;;;3.08;;
34142;SDS011;20419;10.658;106.724;2023-08-12T02:27:03;6.68;;;3.35;;
34142;SDS011;20419;10.658;106.724;2023-08-12T02:29:30;7.20;;;3.60;;
34142;SDS011;20419;10.658;106.724;2023-08-12T02:31:58;6.45;;;2.83;;
34142;SDS011;20419;10.658;106.724;2023-08-12T02:34:25;5.60;;;3.03;;
34142;SDS011;20419;10.658;106.724;2023-08-12T02:36:52;7.57;;;3.45;;
34142;SDS011;20419;10.658;106.724;2023-08-12T02:39:19;6.50;;;3.08;;
34142;SDS011;20419;10.658;106.724;2023-08-12T02:41:45;7.20;;;2.80;;
34142;SDS011;20419;10.658;106.724;2023-08-12T02:44:12;6.10;;;3.10;;
34142;SDS011;20419;10.658;106.724;2023-08-12T02:46:39;7.55;;;3.22;;
34142;SDS011;20419;10.658;106.724;2023-08-12T02:49:06;7.63;;;3.47;;
34142;SDS011;20419;10.658;106.724;2023-08-12T02:51:33;7.55;;;3.03;;
34142;SDS011;20419;10.658;106.724;2023-08-12T02:54:00;7.03;;;3.08;;
34142;SDS011;20419;10.658;106.724;2023-08-12T02:56:27;8.35;;;3.28;;
34142;SDS011;20419;10.658;106.724;2023-08-12T02:58:53;7.38;;;3.28;;
34142;SDS011;20419;10.658;106.724;2023-08-12T03:01:21;6.90;;;3.42;;
34142;SDS011;20419;10.658;106.724;2023-08-12T03:03:47;6.18;;;3.00;;
34142;SDS011;20419;10.658;106.724;2023-08-12T03:06:14;6.13;;;3.10;;
34142;SDS011;20419;10.658;106.724;2023-08-12T03:08:41;5.30;;;2.92;;
34142;SDS011;20419;10.658;106.724;2023-08-12T03:11:08;6.30;;;2.83;;
34142;SDS011;20419;10.658;106.724;2023-08-12T03:13:35;5.20;;;2.60;;
34142;SDS011;20419;10.658;106.724;2023-08-12T03:16:02;5.63;;;3.10;;
34142;SDS011;20419;10.658;106.724;2023-08-12T03:18:29;5.90;;;3.20;;
34142;SDS011;20419;10.658;106.724;2023-08-12T03:20:56;7.28;;;3.05;;
34142;SDS011;20419;10.658;106.724;2023-08-12T03:23:22;6.32;;;2.63;;
34142;SDS011;20419;10.658;106.724;2023-08-12T03:25:49;6.65;;;2.83;;
34142;SDS011;20419;10.658;106.724;2023-08-12T03:28:16;6.65;;;3.03;;
34142;SDS011;20419;10.658;106.724;2023-08-12T03:30:49;5.43;;;2.83;;
34142;SDS011;20419;10.658;106.724;2023-08-12T03:33:16;5.50;;;2.90;;
34142;SDS011;20419;10.658;106.724;2023-08-12T03:35:46;6.30;;;3.17;;
34142;SDS011;20419;10.658;106.724;2023-08-12T03:38:13;6.20;;;3.35;;
34142;SDS011;20419;10.658;106.724;2023-08-12T03:40:41;5.60;;;2.80;;
34142;SDS011;20419;10.658;106.724;2023-08-12T03:43:08;5.13;;;2.67;;
34142;SDS011;20419;10.658;106.724;2023-08-12T03:45:43;5.63;;;3.03;;
34142;SDS011;20419;10.658;106.724;2023-08-12T03:48:10;4.90;;;2.78;;
34142;SDS011;20419;10.658;106.724;2023-08-12T03:50:53;5.45;;;2.90;;
34142;SDS011;20419;10.658;106.724;2023-08-12T03:53:28;5.03;;;2.75;;
34142;SDS011;20419;10.658;106.724;2023-08-12T03:55:55;5.82;;;3.00;;
34142;SDS011;20419;10.658;106.724;2023-08-12T03:58:22;6.68;;;2.83;;
34142;SDS011;20419;10.658;106.724;2023-08-12T04:00:49;5.43;;;2.92;;
34142;SDS011;20419;10.658;106.724;2023-08-12T04:03:16;4.97;;;2.83;;
34142;SDS011;20419;10.658;106.724;2023-08-12T04:05:52;5.90;;;3.30;;
34142;SDS011;20419;10.658;106.724;2023-08-12T04:08:23;5.45;;;2.97;;
34142;SDS011;20419;10.658;106.724;2023-08-12T04:10:53;5.60;;;2.95;;
34142;SDS011;20419;10.658;106.724;2023-08-12T04:13:20;5.18;;;2.88;;
34142;SDS011;20419;10.658;106.724;2023-08-12T04:15:50;5.78;;;2.85;;
34142;SDS011;20419;10.658;106.724;2023-08-12T04:18:18;5.07;;;2.58;;
34142;SDS011;20419;10.658;106.724;2023-08-12T04:20:46;6.10;;;3.08;;
34142;SDS011;20419;10.658;106.724;2023-08-12T04:23:13;5.07;;;2.50;;
34142;SDS011;20419;10.658;106.724;2023-08-12T04:25:42;4.40;;;2.50;;
34142;SDS011;20419;10.658;106.724;2023-08-12T04:28:09;4.38;;;2.25;;
34142;SDS011;20419;10.658;106.724;2023-08-12T04:30:40;5.25;;;2.72;;
34142;SDS011;20419;10.658;106.724;2023-08-12T04:33:06;4.90;;;2.90;;
34142;SDS011;20419;10.658;106.724;2023-08-12T04:35:33;4.38;;;2.33;;
34142;SDS011;20419;10.658;106.724;2023-08-12T04:38:00;4.82;;;2.55;;
34142;SDS011;20419;10.658;106.724;2023-08-12T04:40:27;4.57;;;2.50;;
34142;SDS011;20419;10.658;106.724;2023-08-12T04:42:54;6.85;;;2.95;;
34142;SDS011;20419;10.658;106.724;2023-08-12T04:45:21;5.45;;;2.40;;
34142;SDS011;20419;10.658;106.724;2023-08-12T04:47:48;5.47;;;2.75;;
34142;SDS011;20419;10.658;106.724;2023-08-12T04:50:15;4.18;;;2.30;;
34142;SDS011;20419;10.658;106.724;2023-08-12T04:52:42;4.72;;;2.55;;
34142;SDS011;20419;10.658;106.724;2023-08-12T04:55:09;4.93;;;2.75;;
34142;SDS011;20419;10.658;106.724;2023-08-12T04:57:36;4.40;;;2.30;;
34142;SDS011;20419;10.658;106.724;2023-08-12T05:00:03;5.05;;;2.70;;
34142;SDS011;20419;10.658;106.724;2023-08-12T05:02:30;4.85;;;2.60;;
34142;SDS011;20419;10.658;106.724;2023-08-12T05:04:57;4.30;;;2.45;;
34142;SDS011;20419;10.658;106.724;2023-08-12T05:07:24;5.45;;;2.72;;
34142;SDS011;20419;10.658;106.724;2023-08-12T05:09:51;5.35;;;2.67;;
34142;SDS011;20419;10.658;106.724;2023-08-12T05:12:18;4.50;;;2.45;;
34142;SDS011;20419;10.658;106.724;2023-08-12T05:14:45;4.40;;;2.10;;
34142;SDS011;20419;10.658;106.724;2023-08-12T05:17:15;5.35;;;2.80;;
34142;SDS011;20419;10.658;106.724;2023-08-12T05:19:42;4.75;;;2.88;;
34142;SDS011;20419;10.658;106.724;2023-08-12T05:22:08;4.43;;;2.10;;
34142;SDS011;20419;10.658;106.724;2023-08-12T05:24:35;4.70;;;2.30;;
34142;SDS011;20419;10.658;106.724;2023-08-12T05:27:02;4.88;;;2.33;;
34142;SDS011;20419;10.658;106.724;2023-08-12T05:29:30;3.72;;;2.05;;
34142;SDS011;20419;10.658;106.724;2023-08-12T05:31:57;5.93;;;2.65;;
34142;SDS011;20419;10.658;106.724;2023-08-12T05:34:24;4.15;;;2.38;;
34142;SDS011;20419;10.658;106.724;2023-08-12T05:36:51;5.15;;;2.50;;
34142;SDS011;20419;10.658;106.724;2023-08-12T05:39:17;3.92;;;2.13;;
34142;SDS011;20419;10.658;106.724;2023-08-12T05:41:44;3.95;;;1.98;;
34142;SDS011;20419;10.658;106.724;2023-08-12T05:44:12;4.20;;;2.30;;
34142;SDS011;20419;10.658;106.724;2023-08-12T05:46:38;4.63;;;2.58;;
34142;SDS011;20419;10.658;106.724;2023-08-12T05:49:05;4.75;;;2.40;;
34142;SDS011;20419;10.658;106.724;2023-08-12T05:51:32;4.90;;;2.30;;
34142;SDS011;20419;10.658;106.724;2023-08-12T05:53:59;3.80;;;2.05;;
34142;SDS011;20419;10.658;106.724;2023-08-12T05:56:27;4.85;;;2.42;;
34142;SDS011;20419;10.658;106.724;2023-08-12T05:58:54;4.27;;;2.43;;
34142;SDS011;20419;10.658;106.724;2023-08-12T06:01:21;6.55;;;2.22;;
34142;SDS011;20419;10.658;106.724;2023-08-12T06:03:47;4.25;;;1.90;;
34142;SDS011;20419;10.658;106.724;2023-08-12T06:06:14;4.63;;;2.13;;
34142;SDS011;20419;10.658;106.724;2023-08-12T06:08:41;4.35;;;2.30;;
34142;SDS011;20419;10.658;106.724;2023-08-12T06:11:08;4.88;;;2.67;;
34142;SDS011;20419;10.658;106.724;2023-08-12T06:13:35;4.55;;;2.20;;
34142;SDS011;20419;10.658;106.724;2023-08-12T06:16:02;4.93;;;2.50;;
34142;SDS011;20419;10.658;106.724;2023-08-12T06:18:30;4.40;;;2.30;;
34142;SDS011;20419;10.658;106.724;2023-08-12T06:20:57;4.68;;;2.28;;
34142;SDS011;20419;10.658;106.724;2023-08-12T06:23:24;5.43;;;2.40;;
34142;SDS011;20419;10.658;106.724;2023-08-12T06:25:51;5.10;;;2.40;;
34142;SDS011;20419;10.658;106.724;2023-08-12T06:28:17;4.00;;;2.40;;
34142;SDS011;20419;10.658;106.724;2023-08-12T06:30:45;5.03;;;2.42;;
34142;SDS011;20419;10.658;106.724;2023-08-12T06:33:14;5.70;;;2.70;;
34142;SDS011;20419;10.658;106.724;2023-08-12T06:35:41;4.25;;;2.20;;
34142;SDS011;20419;10.658;106.724;2023-08-12T06:38:09;3.83;;;2.00;;
34142;SDS011;20419;10.658;106.724;2023-08-12T06:40:42;5.45;;;2.42;;
34142;SDS011;20419;10.658;106.724;2023-08-12T06:43:08;5.78;;;2.25;;
34142;SDS011;20419;10.658;106.724;2023-08-12T06:45:36;3.53;;;2.05;;
34142;SDS011;20419;10.658;106.724;2023-08-12T06:48:02;4.47;;;2.65;;
34142;SDS011;20419;10.658;106.724;2023-08-12T06:50:29;4.05;;;2.10;;
34142;SDS011;20419;10.658;106.724;2023-08-12T06:52:58;4.80;;;2.50;;
34142;SDS011;20419;10.658;106.724;2023-08-12T06:55:25;5.40;;;2.55;;
34142;SDS011;20419;10.658;106.724;2023-08-12T06:58:20;4.72;;;2.78;;
34142;SDS011;20419;10.658;106.724;2023-08-12T07:00:50;4.47;;;2.35;;
34142;SDS011;20419;10.658;106.724;2023-08-12T07:03:18;4.55;;;2.53;;
34142;SDS011;20419;10.658;106.724;2023-08-12T07:05:45;4.97;;;2.33;;
34142;SDS011;20419;10.658;106.724;2023-08-12T07:10:48;4.63;;;2.00;;
34142;SDS011;20419;10.658;106.724;2023-08-12T07:13:15;4.82;;;2.28;;
34142;SDS011;20419;10.658;106.724;2023-08-12T07:15:43;4.63;;;2.40;;
34142;SDS011;20419;10.658;106.724;2023-08-12T07:18:10;3.97;;;2.00;;
34142;SDS011;20419;10.658;106.724;2023-08-12T07:20:37;5.25;;;2.22;;
34142;SDS011;20419;10.658;106.724;2023-08-12T07:23:04;4.88;;;2.30;;
34142;SDS011;20419;10.658;106.724;2023-08-12T07:25:31;3.70;;;2.00;;
34142;SDS011;20419;10.658;106.724;2023-08-12T07:27:58;3.55;;;2.13;;
34142;SDS011;20419;10.658;106.724;2023-08-12T07:30:25;4.13;;;2.20;;
34142;SDS011;20419;10.658;106.724;2023-08-12T07:32:53;3.92;;;2.22;;
34142;SDS011;20419;10.658;106.724;2023-08-12T07:35:20;4.40;;;2.10;;
34142;SDS011;20419;10.658;106.724;2023-08-12T07:37:47;3.70;;;2.03;;
34142;SDS011;20419;10.658;106.724;2023-08-12T07:40:14;4.22;;;2.40;;
34142;SDS011;20419;10.658;106.724;2023-08-12T07:42:41;3.33;;;2.15;;
34142;SDS011;20419;10.658;106.724;2023-08-12T07:45:08;4.45;;;2.25;;
34142;SDS011;20419;10.658;106.724;2023-08-12T07:47:35;3.67;;;2.10;;
34142;SDS011;20419;10.658;106.724;2023-08-12T07:50:03;3.72;;;2.13;;
34142;SDS011;20419;10.658;106.724;2023-08-12T07:52:30;4.53;;;2.10;;
34142;SDS011;20419;10.658;106.724;2023-08-12T07:54:57;3.60;;;2.15;;
34142;SDS011;20419;10.658;106.724;2023-08-12T07:57:24;4.03;;;2.00;;
34142;SDS011;20419;10.658;106.724;2023-08-12T07:59:51;4.45;;;2.13;;
34142;SDS011;20419;10.658;106.724;2023-08-12T08:02:18;3.97;;;2.25;;
34142;SDS011;20419;10.658;106.724;2023-08-12T08:04:45;4.28;;;2.20;;
34142;SDS011;20419;10.658;106.724;2023-08-12T08:07:17;5.05;;;2.80;;
34142;SDS011;20419;10.658;106.724;2023-08-12T08:09:44;4.72;;;2.58;;
34142;SDS011;20419;10.658;106.724;2023-08-12T08:12:11;4.70;;;2.30;;
34142;SDS011;20419;10.658;106.724;2023-08-12T08:14:39;8.60;;;3.35;;
34142;SDS011;20419;10.658;106.724;2023-08-12T08:17:06;7.68;;;5.15;;
34142;SDS011;20419;10.658;106.724;2023-08-12T08:19:33;12.00;;;7.03;;
34142;SDS011;20419;10.658;106.724;2023-08-12T08:22:06;44.63;;;34.05;;
34142;SDS011;20419;10.658;106.724;2023-08-12T08:24:33;36.13;;;26.52;;
34142;SDS011;20419;10.658;106.724;2023-08-12T08:27:00;67.75;;;50.58;;
34142;SDS011;20419;10.658;106.724;2023-08-12T08:29:30;101.32;;;78.85;;
34142;SDS011;20419;10.658;106.724;2023-08-12T08:31:57;106.85;;;79.55;;
34142;SDS011;20419;10.658;106.724;2023-08-12T08:34:24;98.28;;;74.97;;
34142;SDS011;20419;10.658;106.724;2023-08-12T08:36:51;96.97;;;79.15;;
34142;SDS011;20419;10.658;106.724;2023-08-12T08:39:18;98.45;;;81.35;;
34142;SDS011;20419;10.658;106.724;2023-08-12T08:41:45;111.60;;;87.45;;
34142;SDS011;20419;10.658;106.724;2023-08-12T08:44:15;106.80;;;86.47;;
34142;SDS011;20419;10.658;106.724;2023-08-12T08:46:43;113.43;;;91.37;;
34142;SDS011;20419;10.658;106.724;2023-08-12T08:49:10;111.03;;;89.32;;
34142;SDS011;20419;10.658;106.724;2023-08-12T08:51:38;115.78;;;89.72;;
34142;SDS011;20419;10.658;106.724;2023-08-12T08:54:05;106.90;;;85.75;;
34142;SDS011;20419;10.658;106.724;2023-08-12T08:56:33;113.25;;;91.30;;
34142;SDS011;20419;10.658;106.724;2023-08-12T08:59:01;113.93;;;94.60;;
34142;SDS011;20419;10.658;106.724;2023-08-12T09:01:28;120.30;;;92.38;;
34142;SDS011;20419;10.658;106.724;2023-08-12T09:03:55;121.85;;;96.78;;
34142;SDS011;20419;10.658;106.724;2023-08-12T09:06:27;106.60;;;88.40;;
34142;SDS011;20419;10.658;106.724;2023-08-12T09:08:55;110.15;;;90.47;;
34142;SDS011;20419;10.658;106.724;2023-08-12T09:11:22;109.82;;;91.55;;
34142;SDS011;20419;10.658;106.724;2023-08-12T09:13:49;122.85;;;95.50;;
34142;SDS011;20419;10.658;106.724;2023-08-12T09:16:16;115.95;;;94.47;;
34142;SDS011;20419;10.658;106.724;2023-08-12T09:18:44;104.03;;;92.13;;
34142;SDS011;20419;10.658;106.724;2023-08-12T09:21:11;114.03;;;97.07;;
34142;SDS011;20419;10.658;106.724;2023-08-12T09:23:38;105.55;;;90.47;;
34142;SDS011;20419;10.658;106.724;2023-08-12T09:26:19;107.30;;;91.87;;
34142;SDS011;20419;10.658;106.724;2023-08-12T09:28:47;109.97;;;92.88;;
34142;SDS011;20419;10.658;106.724;2023-08-12T09:31:24;110.65;;;94.50;;
34142;SDS011;20419;10.658;106.724;2023-08-12T09:33:52;109.10;;;93.22;;
34142;SDS011;20419;10.658;106.724;2023-08-12T09:36:20;107.80;;;92.85;;
34142;SDS011;20419;10.658;106.724;2023-08-12T09:38:48;110.65;;;94.80;;
34142;SDS011;20419;10.658;106.724;2023-08-12T09:41:15;104.72;;;92.45;;
34142;SDS011;20419;10.658;106.724;2023-08-12T09:43:42;109.82;;;93.88;;
34142;SDS011;20419;10.658;106.724;2023-08-12T09:46:12;106.63;;;94.60;;
34142;SDS011;20419;10.658;106.724;2023-08-12T09:48:40;103.20;;;91.85;;
34142;SDS011;20419;10.658;106.724;2023-08-12T09:51:07;105.97;;;94.22;;
34142;SDS011;20419;10.658;106.724;2023-08-12T09:53:36;112.05;;;93.75;;
34142;SDS011;20419;10.658;106.724;2023-08-12T09:56:06;102.97;;;91.65;;
34142;SDS011;20419;10.658;106.724;2023-08-12T09:58:35;108.00;;;93.03;;
34142;SDS011;20419;10.658;106.724;2023-08-12T10:01:03;106.03;;;91.32;;
34142;SDS011;20419;10.658;106.724;2023-08-12T10:03:32;105.93;;;94.30;;
34142;SDS011;20419;10.658;106.724;2023-08-12T10:06:01;101.50;;;90.07;;
34142;SDS011;20419;10.658;106.724;2023-08-12T10:08:29;107.07;;;95.35;;
34142;SDS011;20419;10.658;106.724;2023-08-12T10:10:56;102.60;;;91.32;;
34142;SDS011;20419;10.658;106.724;2023-08-12T10:13:23;106.18;;;94.55;;
34142;SDS011;20419;10.658;106.724;2023-08-12T10:15:50;102.97;;;90.20;;
34142;SDS011;20419;10.658;106.724;2023-08-12T10:18:18;101.68;;;90.60;;
34142;SDS011;20419;10.658;106.724;2023-08-12T10:20:46;107.00;;;91.40;;
34142;SDS011;20419;10.658;106.724;2023-08-12T10:23:15;100.45;;;89.13;;
34142;SDS011;20419;10.658;106.724;2023-08-12T10:25:44;98.63;;;88.15;;
34142;SDS011;20419;10.658;106.724;2023-08-12T10:28:11;99.03;;;87.35;;
34142;SDS011;20419;10.658;106.724;2023-08-12T10:30:42;101.30;;;90.35;;
34142;SDS011;20419;10.658;106.724;2023-08-12T10:33:11;96.50;;;85.82;;
34142;SDS011;20419;10.658;106.724;2023-08-12T10:35:46;98.55;;;87.78;;
34142;SDS011;20419;10.658;106.724;2023-08-12T10:38:13;98.60;;;87.80;;
34142;SDS011;20419;10.658;106.724;2023-08-12T10:40:40;99.18;;;88.45;;
34142;SDS011;20419;10.658;106.724;2023-08-12T10:43:08;98.38;;;87.72;;
34142;SDS011;20419;10.658;106.724;2023-08-12T10:45:42;98.78;;;88.10;;
34142;SDS011;20419;10.658;106.724;2023-08-12T10:48:15;97.90;;;87.45;;
34142;SDS011;20419;10.658;106.724;2023-08-12T10:50:44;96.05;;;85.32;;
34142;SDS011;20419;10.658;106.724;2023-08-12T10:53:21;97.23;;;87.07;;
34142;SDS011;20419;10.658;106.724;2023-08-12T10:55:55;97.57;;;86.88;;
34142;SDS011;20419;10.658;106.724;2023-08-12T10:58:29;93.32;;;83.53;;
34142;SDS011;20419;10.658;106.724;2023-08-12T11:00:57;92.20;;;82.20;;
34142;SDS011;20419;10.658;106.724;2023-08-12T11:03:24;93.53;;;83.32;;
34142;SDS011;20419;10.658;106.724;2023-08-12T11:05:52;95.50;;;85.32;;
34142;SDS011;20419;10.658;106.724;2023-08-12T11:08:26;94.90;;;84.57;;
34142;SDS011;20419;10.658;106.724;2023-08-12T11:10:54;92.90;;;82.97;;
34142;SDS011;20419;10.658;106.724;2023-08-12T11:13:22;92.40;;;82.57;;
34142;SDS011;20419;10.658;106.724;2023-08-12T11:15:50;92.25;;;82.55;;
34142;SDS011;20419;10.658;106.724;2023-08-12T11:18:17;90.75;;;81.03;;
34142;SDS011;20419;10.658;106.724;2023-08-12T11:20:45;88.77;;;79.70;;
34142;SDS011;20419;10.658;106.724;2023-08-12T11:23:13;91.30;;;81.68;;
34142;SDS011;20419;10.658;106.724;2023-08-12T11:25:42;97.90;;;87.93;;
34142;SDS011;20419;10.658;106.724;2023-08-12T11:28:10;94.38;;;84.38;;
34142;SDS011;20419;10.658;106.724;2023-08-12T11:30:40;94.07;;;84.05;;
34142;SDS011;20419;10.658;106.724;2023-08-12T11:33:10;93.60;;;83.57;;
34142;SDS011;20419;10.658;106.724;2023-08-12T11:35:38;87.70;;;78.55;;
34142;SDS011;20419;10.658;106.724;2023-08-12T11:38:05;88.38;;;79.30;;
34142;SDS011;20419;10.658;106.724;2023-08-12T11:40:33;88.63;;;79.25;;
34142;SDS011;20419;10.658;106.724;2023-08-12T11:43:01;90.85;;;81.05;;
34142;SDS011;20419;10.658;106.724;2023-08-12T11:45:29;90.40;;;80.97;;
34142;SDS011;20419;10.658;106.724;2023-08-12T11:47:56;91.10;;;82.03;;
34142;SDS011;20419;10.658;106.724;2023-08-12T11:50:24;89.47;;;80.22;;
34142;SDS011;20419;10.658;106.724;2023-08-12T11:52:51;88.90;;;79.50;;
34142;SDS011;20419;10.658;106.724;2023-08-12T11:55:19;85.97;;;77.27;;
34142;SDS011;20419;10.658;106.724;2023-08-12T11:57:46;85.03;;;76.20;;
34142;SDS011;20419;10.658;106.724;2023-08-12T12:00:13;85.32;;;76.28;;
34142;SDS011;20419;10.658;106.724;2023-08-12T12:05:14;85.45;;;76.20;;
34142;SDS011;20419;10.658;106.724;2023-08-12T12:07:41;83.88;;;75.18;;
34142;SDS011;20419;10.658;106.724;2023-08-12T12:10:12;81.90;;;73.60;;
34142;SDS011;20419;10.658;106.724;2023-08-12T12:12:40;79.75;;;71.47;;
34142;SDS011;20419;10.658;106.724;2023-08-12T12:15:08;81.85;;;73.38;;
34142;SDS011;20419;10.658;106.724;2023-08-12T12:17:38;79.28;;;70.95;;
34142;SDS011;20419;10.658;106.724;2023-08-12T12:20:06;81.57;;;73.20;;
34142;SDS011;20419;10.658;106.724;2023-08-12T12:22:37;75.50;;;67.90;;
34142;SDS011;20419;10.658;106.724;2023-08-12T12:25:08;78.43;;;70.30;;
34142;SDS011;20419;10.658;106.724;2023-08-12T12:27:38;74.22;;;66.53;;
34142;SDS011;20419;10.658;106.724;2023-08-12T12:30:08;74.05;;;66.40;;
34142;SDS011;20419;10.658;106.724;2023-08-12T12:32:35;75.85;;;68.13;;
34142;SDS011;20419;10.658;106.724;2023-08-12T12:35:03;72.32;;;64.68;;
34142;SDS011;20419;10.658;106.724;2023-08-12T12:37:32;72.80;;;65.30;;
34142;SDS011;20419;10.658;106.724;2023-08-12T12:39:59;78.22;;;70.13;;
34142;SDS011;20419;10.658;106.724;2023-08-12T12:42:26;72.35;;;65.10;;
34142;SDS011;20419;10.658;106.724;2023-08-12T12:44:55;69.22;;;61.88;;
34142;SDS011;20419;10.658;106.724;2023-08-12T12:47:24;70.00;;;62.90;;
34142;SDS011;20419;10.658;106.724;2023-08-12T12:49:50;71.25;;;63.85;;
34142;SDS011;20419;10.658;106.724;2023-08-12T12:52:18;68.03;;;61.08;;
34142;SDS011;20419;10.658;106.724;2023-08-12T12:54:45;68.75;;;61.55;;
34142;SDS011;20419;10.658;106.724;2023-08-12T12:57:15;65.55;;;58.78;;
34142;SDS011;20419;10.658;106.724;2023-08-12T12:59:46;63.92;;;57.33;;
34142;SDS011;20419;10.658;106.724;2023-08-12T13:02:16;66.53;;;59.67;;
34142;SDS011;20419;10.658;106.724;2023-08-12T13:04:43;65.30;;;58.63;;
34142;SDS011;20419;10.658;106.724;2023-08-12T13:07:10;66.25;;;59.35;;
34142;SDS011;20419;10.658;106.724;2023-08-12T13:09:37;63.20;;;56.53;;
34142;SDS011;20419;10.658;106.724;2023-08-12T13:12:04;60.92;;;54.60;;
34142;SDS011;20419;10.658;106.724;2023-08-12T13:14:31;65.18;;;58.63;;
34142;SDS011;20419;10.658;106.724;2023-08-12T13:16:58;60.97;;;54.70;;
34142;SDS011;20419;10.658;106.724;2023-08-12T13:19:28;59.97;;;53.83;;
34142;SDS011;20419;10.658;106.724;2023-08-12T13:21:55;64.97;;;58.10;;
34142;SDS011;20419;10.658;106.724;2023-08-12T13:24:23;62.20;;;55.83;;
34142;SDS011;20419;10.658;106.724;2023-08-12T13:26:52;60.35;;;54.22;;
34142;SDS011;20419;10.658;106.724;2023-08-12T13:29:23;62.20;;;56.03;;
34142;SDS011;20419;10.658;106.724;2023-08-12T13:32:07;60.40;;;54.30;;
34142;SDS011;20419;10.658;106.724;2023-08-12T13:34:52;60.47;;;54.47;;
34142;SDS011;20419;10.658;106.724;2023-08-12T13:37:19;60.28;;;54.13;;
34142;SDS011;20419;10.658;106.724;2023-08-12T13:39:49;61.67;;;55.38;;
34142;SDS011;20419;10.658;106.724;2023-08-12T13:42:16;59.58;;;53.63;;
34142;SDS011;20419;10.658;106.724;2023-08-12T13:44:43;58.13;;;52.25;;
34142;SDS011;20419;10.658;106.724;2023-08-12T13:47:10;60.97;;;54.78;;
34142;SDS011;20419;10.658;106.724;2023-08-12T13:49:37;56.10;;;50.60;;
34142;SDS011;20419;10.658;106.724;2023-08-12T13:52:04;58.60;;;52.50;;
34142;SDS011;20419;10.658;106.724;2023-08-12T13:54:31;59.08;;;53.17;;
34142;SDS011;20419;10.658;106.724;2023-08-12T13:56:59;58.47;;;52.40;;
34142;SDS011;20419;10.658;106.724;2023-08-12T13:59:26;58.35;;;52.53;;
34142;SDS011;20419;10.658;106.724;2023-08-12T14:01:53;56.50;;;50.78;;
34142;SDS011;20419;10.658;106.724;2023-08-12T14:04:20;59.53;;;53.53;;
34142;SDS011;20419;10.658;106.724;2023-08-12T14:06:50;57.03;;;51.35;;
34142;SDS011;20419;10.658;106.724;2023-08-12T14:09:17;56.45;;;50.72;;
34142;SDS011;20419;10.658;106.724;2023-08-12T14:11:45;57.10;;;51.33;;
34142;SDS011;20419;10.658;106.724;2023-08-12T14:14:12;57.20;;;51.42;;
34142;SDS011;20419;10.658;106.724;2023-08-12T14:16:39;57.30;;;51.58;;
34142;SDS011;20419;10.658;106.724;2023-08-12T14:19:07;55.80;;;50.33;;
34142;SDS011;20419;10.658;106.724;2023-08-12T14:21:34;55.25;;;49.67;;